createdAt,value
2019-06-10T00:00:42.358Z,20.90
2019-06-10T00:03:46.119Z,20.80
2019-06-10T00:06:50.918Z,20.80
2019-06-10T00:09:56.156Z,20.90
2019-06-10T00:13:02.096Z,20.80
2019-06-10T00:16:06.692Z,20.80
2019-06-10T00:19:12.781Z,20.80
2019-06-10T00:22:16.206Z,20.80
2019-06-10T00:25:21.026Z,20.80
2019-06-10T00:28:24.770Z,20.70
2019-06-10T00:31:28.459Z,20.60
2019-06-10T00:34:34.996Z,20.60
2019-06-10T00:37:37.557Z,20.50
2019-06-10T00:40:42.028Z,20.40
2019-06-10T00:43:45.806Z,20.40
2019-06-10T00:46:51.653Z,20.30
2019-06-10T00:49:54.898Z,20.20
2019-06-10T00:53:00.924Z,20.20
2019-06-10T00:56:05.671Z,20.10
2019-06-10T00:59:12.259Z,20.00
2019-06-10T01:02:14.989Z,20.00
2019-06-10T01:05:20.741Z,20.00
2019-06-10T01:08:24.175Z,20.00
2019-06-10T01:11:27.997Z,19.90
2019-06-10T01:14:32.044Z,19.90
2019-06-10T01:17:35.775Z,19.90
2019-06-10T01:20:41.312Z,19.90
2019-06-10T01:23:44.865Z,19.90
2019-06-10T01:26:50.542Z,19.90
2019-06-10T01:29:54.334Z,19.90
2019-06-10T01:32:58.009Z,19.80
2019-06-10T01:36:01.660Z,19.80
2019-06-10T01:39:06.920Z,19.80
2019-06-10T01:42:11.373Z,19.80
2019-06-10T01:45:17.265Z,19.80
2019-06-10T01:48:21.172Z,19.80
2019-06-10T01:51:24.858Z,19.80
2019-06-10T01:54:28.565Z,19.80
2019-06-10T01:57:32.282Z,19.80
2019-06-10T02:00:50.783Z,19.80
2019-06-10T02:03:54.653Z,19.80
2019-06-10T02:06:58.438Z,19.80
2019-06-10T02:10:02.118Z,19.80
2019-06-10T02:13:07.522Z,19.80
2019-06-10T02:16:14.063Z,19.80
2019-06-10T02:19:17.486Z,19.80
2019-06-10T02:22:24.228Z,19.80
2019-06-10T02:25:27.517Z,19.80
2019-06-10T02:28:32.026Z,19.80
2019-06-10T02:31:37.750Z,19.80
2019-06-10T02:34:59.929Z,19.80
2019-06-10T02:37:46.732Z,19.80
2019-06-10T02:40:53.605Z,19.80
2019-06-10T02:43:55.922Z,19.80
2019-06-10T02:47:03.149Z,19.80
2019-06-10T02:50:08.735Z,19.80
2019-06-10T02:53:13.542Z,19.80
2019-06-10T02:56:19.005Z,19.70
2019-06-10T02:59:27.466Z,19.70
2019-06-10T03:02:31.471Z,19.70
2019-06-10T03:05:40.481Z,19.60
2019-06-10T03:08:39.381Z,19.50
2019-06-10T03:11:44.855Z,19.40
2019-06-10T03:14:48.470Z,19.20
2019-06-10T03:17:52.252Z,19.10
2019-06-10T03:20:55.929Z,19.00
2019-06-10T03:23:59.601Z,18.90
2019-06-10T03:27:03.288Z,18.90
2019-06-10T03:30:15.286Z,18.80
2019-06-10T03:33:13.712Z,18.70
2019-06-10T03:36:18.208Z,18.60
2019-06-10T03:39:23.882Z,18.60
2019-06-10T03:42:28.223Z,18.50
2019-06-10T03:45:32.465Z,18.40
2019-06-10T03:48:37.191Z,18.30
2019-06-10T03:51:42.813Z,18.20
2019-06-10T03:54:46.355Z,18.10
2019-06-10T03:57:52.286Z,18.00
2019-06-10T04:00:55.458Z,18.00
2019-06-10T04:03:59.193Z,17.90
2019-06-10T04:07:03.852Z,17.80
2019-06-10T04:10:08.334Z,17.70
2019-06-10T04:13:13.253Z,17.70
2019-06-10T04:16:17.606Z,17.70
2019-06-10T04:19:23.599Z,17.70
2019-06-10T04:22:28.080Z,17.70
2019-06-10T04:25:32.459Z,17.70
2019-06-10T04:28:36.258Z,17.70
2019-06-10T04:31:42.287Z,17.70
2019-06-10T04:34:45.410Z,17.60
2019-06-10T04:37:49.096Z,17.60
2019-06-10T04:40:52.767Z,17.50
2019-06-10T04:43:56.491Z,17.40
2019-06-10T04:47:02.536Z,17.40
2019-06-10T04:50:20.574Z,17.40
2019-06-10T04:53:12.877Z,17.40
2019-06-10T04:56:16.706Z,17.40
2019-06-10T04:59:21.416Z,17.40
2019-06-10T05:02:27.387Z,17.30
2019-06-10T05:05:32.793Z,17.30
2019-06-10T05:08:36.732Z,17.30
2019-06-10T05:11:42.818Z,17.30
2019-06-10T05:14:45.888Z,17.30
2019-06-10T05:17:49.603Z,17.30
2019-06-10T05:20:58.677Z,17.30
2019-06-10T05:24:02.939Z,17.30
2019-06-10T05:27:06.794Z,17.30
2019-06-10T05:30:12.285Z,17.30
2019-06-10T05:33:16.223Z,17.40
2019-06-10T05:36:20.631Z,17.50
2019-06-10T05:39:27.251Z,17.50
2019-06-10T05:42:33.552Z,17.60
2019-06-10T05:45:35.650Z,17.70
2019-06-10T05:48:39.398Z,17.80
2019-06-10T05:51:43.218Z,17.80
2019-06-10T05:54:47.022Z,17.90
2019-06-10T05:57:53.139Z,18.00
2019-06-10T06:00:56.182Z,18.20
2019-06-10T06:03:59.874Z,18.20
2019-06-10T06:07:03.552Z,18.20
2019-06-10T06:10:07.626Z,18.20
2019-06-10T06:13:12.775Z,18.40
2019-06-10T06:16:16.490Z,18.50
2019-06-10T06:19:20.180Z,18.70
2019-06-10T06:22:23.874Z,18.80
2019-06-10T06:25:29.882Z,18.80
2019-06-10T06:28:35.936Z,18.90
2019-06-10T06:31:38.854Z,19.00
2019-06-10T06:34:43.135Z,19.00
2019-06-10T06:37:46.888Z,19.10
2019-06-10T06:40:53.769Z,19.50
2019-06-10T06:43:56.144Z,19.80
2019-06-10T06:47:02.538Z,20.00
2019-06-10T06:50:06.349Z,20.20
2019-06-10T06:53:21.258Z,20.20
2019-06-10T06:56:15.504Z,20.30
2019-06-10T06:59:19.179Z,20.40
2019-06-10T07:02:23.515Z,20.30
2019-06-10T07:05:27.427Z,20.20
2019-06-10T07:08:35.891Z,20.20
2019-06-10T07:11:41.144Z,20.30
2019-06-10T07:14:45.870Z,20.50
2019-06-10T07:17:49.577Z,20.70
2019-06-10T07:20:54.078Z,21.00
2019-06-10T07:23:57.871Z,21.30
2019-06-10T07:27:02.727Z,21.60
2019-06-10T07:30:11.856Z,21.60
2019-06-10T07:33:12.277Z,21.70
2019-06-10T07:36:16.419Z,21.60
2019-06-10T07:39:22.545Z,21.40
2019-06-10T07:42:25.516Z,21.40
2019-06-10T07:45:29.309Z,21.30
2019-06-10T07:48:34.818Z,21.30
2019-06-10T07:51:39.362Z,21.30
2019-06-10T07:54:44.994Z,21.40
2019-06-10T07:57:48.581Z,21.50
2019-06-10T08:00:53.401Z,21.50
2019-06-10T08:03:57.454Z,21.60
2019-06-10T08:07:03.335Z,21.70
2019-06-10T08:10:07.266Z,21.80
2019-06-10T08:13:12.035Z,21.80
2019-06-10T08:16:16.006Z,21.90
2019-06-10T08:19:31.582Z,22.10
2019-06-10T08:22:33.555Z,22.50
2019-06-10T08:25:32.780Z,22.80
2019-06-10T08:28:35.978Z,23.10
2019-06-10T08:31:43.520Z,23.30
2019-06-10T08:34:47.917Z,23.50
2019-06-10T08:37:53.025Z,23.60
2019-06-10T08:40:56.069Z,23.70
2019-06-10T08:44:02.107Z,23.70
2019-06-10T08:47:06.151Z,23.70
2019-06-10T08:50:09.918Z,23.90
2019-06-10T08:53:17.860Z,24.10
2019-06-10T08:56:19.245Z,24.10
2019-06-10T08:59:23.220Z,24.10
2019-06-10T09:02:27.039Z,24.20
2019-06-10T09:05:32.388Z,24.20
2019-06-10T09:08:36.196Z,24.30
2019-06-10T09:11:43.152Z,24.20
2019-06-10T09:14:46.770Z,24.30
2019-06-10T09:17:55.328Z,24.40
2019-06-10T09:20:56.427Z,24.40
2019-06-10T09:24:03.608Z,24.40
2019-06-10T09:27:05.788Z,24.50
2019-06-10T09:30:13.297Z,24.60
2019-06-10T09:33:16.185Z,24.80
2019-06-10T09:36:19.862Z,24.80
2019-06-10T09:39:23.600Z,25.00
2019-06-10T09:42:27.305Z,25.10
2019-06-10T09:45:33.283Z,25.20
2019-06-10T09:48:36.579Z,25.30
2019-06-10T09:51:44.467Z,25.30
2019-06-10T09:54:50.024Z,25.30
2019-06-10T09:57:58.474Z,25.50
2019-06-10T10:00:58.282Z,25.70
2019-06-10T10:04:02.319Z,25.90
2019-06-10T10:07:06.183Z,26.20
2019-06-10T10:10:12.875Z,26.30
2019-06-10T10:13:16.794Z,26.10
2019-06-10T10:16:22.451Z,26.10
2019-06-10T10:19:26.318Z,26.00
2019-06-10T10:22:30.035Z,26.10
2019-06-10T10:25:33.721Z,26.10
2019-06-10T10:28:37.375Z,26.20
2019-06-10T10:31:45.256Z,26.10
2019-06-10T10:34:48.377Z,26.10
2019-06-10T10:37:54.307Z,26.00
2019-06-10T10:40:59.101Z,26.00
2019-06-10T10:44:03.458Z,26.00
2019-06-10T10:47:07.178Z,26.00
2019-06-10T10:50:13.931Z,26.00
2019-06-10T10:53:17.542Z,25.90
2019-06-10T10:56:22.366Z,26.00
2019-06-10T10:59:26.190Z,26.00
2019-06-10T11:02:32.065Z,26.10
2019-06-10T11:05:36.523Z,26.10
2019-06-10T11:08:42.521Z,26.20
2019-06-10T11:11:47.230Z,26.30
2019-06-10T11:14:54.457Z,26.30
2019-06-10T11:17:58.247Z,26.30
2019-06-10T11:21:04.949Z,26.40
2019-06-10T11:24:07.498Z,26.30
2019-06-10T11:27:12.720Z,26.30
2019-06-10T11:30:16.598Z,26.50
2019-06-10T11:33:22.735Z,26.60
2019-06-10T11:36:25.737Z,26.70
2019-06-10T11:39:29.462Z,26.80
2019-06-10T11:42:33.536Z,26.90
2019-06-10T11:45:37.303Z,26.90
2019-06-10T11:48:43.197Z,27.00
2019-06-10T11:51:47.156Z,27.20
2019-06-10T11:55:04.169Z,27.30
2019-06-10T11:57:57.665Z,27.30
2019-06-10T12:01:03.781Z,27.30
2019-06-10T12:04:07.154Z,27.20
2019-06-10T12:07:12.880Z,27.30
2019-06-10T12:10:16.882Z,27.50
2019-06-10T12:13:22.613Z,27.80
2019-06-10T12:17:15.734Z,27.90
2019-06-10T12:19:33.866Z,28.00
2019-06-10T12:22:37.287Z,28.00
2019-06-10T12:25:43.026Z,28.00
2019-06-10T12:28:46.390Z,27.90
2019-06-10T12:31:50.723Z,28.00
2019-06-10T12:34:56.238Z,28.10
2019-06-10T12:38:05.649Z,28.00
2019-06-10T12:41:09.583Z,28.10
2019-06-10T12:44:13.037Z,28.10
2019-06-10T12:47:17.046Z,28.30
2019-06-10T12:50:20.907Z,28.40
2019-06-10T12:53:24.630Z,28.50
2019-06-10T12:56:28.329Z,28.50
2019-06-10T12:59:32.569Z,28.60
2019-06-10T13:02:37.070Z,28.70
2019-06-10T13:05:42.506Z,28.70
2019-06-10T13:08:48.067Z,28.80
2019-06-10T13:11:53.251Z,29.00
2019-06-10T13:14:57.891Z,29.20
2019-06-10T13:18:06.138Z,29.20
2019-06-10T13:21:13.439Z,29.30
2019-06-10T13:24:13.771Z,29.30
2019-06-10T13:27:17.676Z,29.20
2019-06-10T13:30:22.632Z,29.20
2019-06-10T13:33:26.362Z,29.30
2019-06-10T13:36:30.073Z,29.40
2019-06-10T13:39:33.775Z,29.50
2019-06-10T13:42:37.499Z,29.50
2019-06-10T13:45:42.909Z,29.40
2019-06-10T13:48:47.839Z,29.30
2019-06-10T13:51:52.921Z,29.40
2019-06-10T13:54:57.009Z,29.50
2019-06-10T13:58:03.572Z,29.30
2019-06-10T14:01:11.638Z,29.10
2019-06-10T14:04:20.649Z,29.20
2019-06-10T14:07:17.699Z,29.20
2019-06-10T14:10:22.699Z,29.10
2019-06-10T14:13:26.533Z,29.20
2019-06-10T14:16:32.897Z,29.20
2019-06-10T14:19:35.819Z,29.30
2019-06-10T14:22:39.523Z,29.30
2019-06-10T14:25:43.386Z,29.20
2019-06-10T14:28:47.146Z,29.00
2019-06-10T14:31:53.339Z,28.90
2019-06-10T14:34:56.457Z,28.80
2019-06-10T14:38:00.156Z,28.80
2019-06-10T14:41:04.966Z,28.90
2019-06-10T14:44:11.496Z,28.90
2019-06-10T14:47:16.430Z,28.80
2019-06-10T14:50:23.037Z,28.80
2019-06-10T14:53:26.450Z,28.80
2019-06-10T14:56:30.165Z,28.70
2019-06-10T14:59:34.026Z,28.70
2019-06-10T15:02:37.869Z,28.80
2019-06-10T15:05:43.342Z,29.00
2019-06-10T15:08:47.199Z,29.20
2019-06-10T15:11:52.104Z,29.30
2019-06-10T15:14:56.074Z,29.40
2019-06-10T15:17:59.803Z,29.40
2019-06-10T15:21:03.490Z,29.50
2019-06-10T15:24:07.818Z,29.50
2019-06-10T15:27:19.296Z,29.40
2019-06-10T15:30:23.651Z,29.30
2019-06-10T15:33:23.699Z,29.20
2019-06-10T15:36:27.710Z,29.30
2019-06-10T15:39:33.319Z,29.60
2019-06-10T15:42:36.909Z,29.70
2019-06-10T15:45:43.055Z,29.70
2019-06-10T15:48:46.114Z,29.70
2019-06-10T15:51:49.823Z,29.60
2019-06-10T15:54:53.514Z,29.60
2019-06-10T15:57:57.550Z,29.60
2019-06-10T16:01:02.841Z,29.40
2019-06-10T16:04:06.803Z,29.30
2019-06-10T16:07:13.099Z,29.30
2019-06-10T16:10:19.607Z,29.20
2019-06-10T16:13:25.612Z,29.30
2019-06-10T16:16:27.274Z,29.40
2019-06-10T16:19:32.887Z,29.30
2019-06-10T16:22:36.417Z,29.10
2019-06-10T16:25:42.471Z,29.10
2019-06-10T16:28:45.721Z,29.10
2019-06-10T16:31:49.426Z,29.20
2019-06-10T16:34:53.101Z,29.20
2019-06-10T16:37:57.127Z,29.10
2019-06-10T16:41:03.205Z,28.90
2019-06-10T16:44:06.551Z,28.70
2019-06-10T16:47:12.587Z,28.60
2019-06-10T16:50:17.232Z,28.50
2019-06-10T16:53:26.747Z,28.30
2019-06-10T16:56:27.749Z,28.20
2019-06-10T16:59:33.002Z,28.10
2019-06-10T17:02:36.801Z,28.00
2019-06-10T17:05:42.548Z,27.80
2019-06-10T17:08:45.906Z,27.80
2019-06-10T17:11:49.714Z,27.70
2019-06-10T17:14:53.415Z,27.60
2019-06-10T17:17:57.162Z,27.50
2019-06-10T17:21:03.327Z,27.40
2019-06-10T17:24:06.425Z,27.30
2019-06-10T17:27:10.217Z,27.20
2019-06-10T17:30:14.979Z,27.20
2019-06-10T17:33:20.419Z,27.20
2019-06-10T17:36:26.425Z,27.20
2019-06-10T17:39:30.221Z,27.20
2019-06-10T17:42:38.374Z,27.10
2019-06-10T17:45:42.207Z,27.10
2019-06-10T17:48:46.057Z,27.10
2019-06-10T17:51:49.820Z,27.00
2019-06-10T17:54:55.205Z,26.80
2019-06-10T17:57:59.296Z,26.60
2019-06-10T18:01:03.048Z,26.50
2019-06-10T18:04:06.784Z,26.40
2019-06-10T18:07:12.877Z,26.30
2019-06-10T18:10:16.374Z,26.30
2019-06-10T18:13:22.503Z,26.20
2019-06-10T18:16:26.163Z,26.10
2019-06-10T18:19:30.390Z,26.00
2019-06-10T18:22:36.963Z,25.90
2019-06-10T18:25:39.847Z,25.90
2019-06-10T18:29:05.197Z,25.80
2019-06-10T18:32:03.266Z,25.70
2019-06-10T18:35:06.839Z,25.60
2019-06-10T18:38:12.621Z,25.60
2019-06-10T18:41:16.245Z,25.50
2019-06-10T18:44:24.121Z,25.40
2019-06-10T18:47:25.614Z,25.40
2019-06-10T18:50:30.287Z,25.30
2019-06-10T18:53:36.407Z,25.20
2019-06-10T18:56:40.315Z,25.10
2019-06-10T18:59:44.614Z,25.10
2019-06-10T19:02:48.431Z,25.00
2019-06-10T19:05:53.012Z,24.90
2019-06-10T19:08:58.082Z,24.90
2019-06-10T19:12:02.884Z,24.80
2019-06-10T19:15:07.786Z,24.70
2019-06-10T19:18:14.997Z,24.70
2019-06-10T19:21:17.014Z,24.60
2019-06-10T19:24:23.302Z,24.50
2019-06-10T19:27:26.414Z,24.40
2019-06-10T19:30:31.872Z,24.30
2019-06-10T19:33:37.168Z,24.20
2019-06-10T19:36:41.840Z,24.20
2019-06-10T19:39:50.597Z,24.10
2019-06-10T19:42:52.526Z,24.00
2019-06-10T19:45:56.306Z,24.00
2019-06-10T19:49:06.233Z,23.90
2019-06-10T19:52:05.475Z,23.90
2019-06-10T19:55:09.357Z,23.80
2019-06-10T19:58:13.454Z,23.70
2019-06-10T20:01:17.257Z,23.70
2019-06-10T20:04:22.612Z,23.70
2019-06-10T20:07:26.514Z,23.70
2019-06-10T20:10:32.379Z,23.60
2019-06-10T20:13:36.472Z,23.60
2019-06-10T20:16:46.390Z,23.60
2019-06-10T20:19:50.205Z,23.60
2019-06-10T20:22:57.213Z,23.50
2019-06-10T20:25:59.596Z,23.50
2019-06-10T20:29:03.782Z,23.50
2019-06-10T20:32:07.866Z,23.50
2019-06-10T20:35:12.821Z,23.40
2019-06-10T20:38:16.541Z,23.40
2019-06-10T20:41:20.241Z,23.40
2019-06-10T20:44:24.018Z,23.40
2019-06-10T20:47:27.785Z,23.40
2019-06-10T20:50:32.360Z,23.30
2019-06-10T20:53:36.366Z,23.30
2019-06-10T20:56:41.079Z,23.20
2019-06-10T20:59:47.879Z,23.30
2019-06-10T21:02:53.680Z,23.30
2019-06-10T21:05:58.122Z,23.30
2019-06-10T21:09:03.010Z,23.30
2019-06-10T21:12:06.771Z,23.20
2019-06-10T21:15:12.553Z,23.20
2019-06-10T21:18:16.513Z,23.20
2019-06-10T21:21:22.485Z,23.20
2019-06-10T21:24:25.843Z,23.20
2019-06-10T21:27:29.574Z,23.10
2019-06-10T21:30:41.181Z,23.10
2019-06-10T21:33:39.033Z,23.10
2019-06-10T21:36:43.342Z,23.00
2019-06-10T21:39:48.063Z,22.90
2019-06-10T21:42:54.034Z,22.80
2019-06-10T21:45:58.002Z,22.80
2019-06-10T21:49:01.821Z,22.80
2019-06-10T21:52:05.600Z,22.70
2019-06-10T21:55:09.714Z,22.70
2019-06-10T21:58:13.917Z,22.70
2019-06-10T22:01:17.729Z,22.60
2019-06-10T22:04:22.492Z,22.60
2019-06-10T22:07:26.395Z,22.60
2019-06-10T22:10:30.202Z,22.60
2019-06-10T22:13:33.949Z,22.50
2019-06-10T22:16:37.662Z,22.40
2019-06-10T22:19:42.747Z,22.40
2019-06-10T22:22:46.665Z,22.40
2019-06-10T22:25:53.620Z,22.40
2019-06-10T22:28:57.674Z,22.40
2019-06-10T22:32:02.635Z,22.30
2019-06-10T22:35:06.821Z,22.30
2019-06-10T22:38:13.027Z,22.20
2019-06-10T22:41:16.537Z,22.20
2019-06-10T22:44:20.205Z,22.10
2019-06-10T22:47:23.913Z,22.10
2019-06-10T22:50:27.598Z,22.10
2019-06-10T22:53:33.391Z,22.10
2019-06-10T22:56:36.898Z,22.00
2019-06-10T22:59:42.520Z,22.00
2019-06-10T23:02:47.803Z,22.00
2019-06-10T23:05:52.367Z,22.00
2019-06-10T23:08:57.707Z,22.00
2019-06-10T23:12:02.839Z,21.90
2019-06-10T23:15:07.165Z,21.90
2019-06-10T23:18:12.731Z,21.90
2019-06-10T23:21:16.375Z,21.80
2019-06-10T23:24:22.571Z,21.80
2019-06-10T23:27:25.545Z,21.80
2019-06-10T23:30:29.271Z,21.60
2019-06-10T23:33:32.988Z,21.60
2019-06-10T23:36:36.714Z,21.60
2019-06-10T23:39:42.642Z,21.50
2019-06-10T23:42:45.977Z,21.50
2019-06-10T23:45:51.092Z,21.50
2019-06-10T23:48:55.429Z,21.40
2019-06-10T23:52:00.349Z,21.40
2019-06-10T23:55:05.045Z,21.40
2019-06-10T23:58:08.754Z,21.40
